Prudhoe Bay, Alaska
Current Conditions -  °F | °C
As of 3:53 PM on Friday 24 Oct 2014 (Local Time) from PASC Reporting Station
Overcast Overcast  
Wind Chill:   Ceiling: 10000
Heat Index: 19°   Visibility: 10mi
Dew Point: 15°   Wind: 14mph
Humidity: 85%   Direction: 90°E
Pressure: 29.8"   Gusts: NA
Location:  70.28°N, 148.38°W
Report Text: PASC 242353Z 09012KT 10SM OVC100 M07/M09 A2980 RMK AO2 SLP092 T10721094 11072 21083 51010
Loading
Personal Weather Stations






























Interactive Weather Map
Tropical Storm Tracking
New forecast layout! Learn more

10-Day Weather Forecast

Advertisements
Track Severe Weather on mobile